sensor_id;sensor_type;location;lat;lon;timestamp;P1;durP1;ratioP1;P2;durP2;ratioP2
27543;SDS011;17996;51.056;3.656;2024-03-08T00:00:18;38.60;;;21.60;;
27543;SDS011;17996;51.056;3.656;2024-03-08T00:05:13;31.92;;;20.25;;
27543;SDS011;17996;51.056;3.656;2024-03-08T00:07:46;36.17;;;21.33;;
27543;SDS011;17996;51.056;3.656;2024-03-08T00:10:12;39.95;;;21.15;;
27543;SDS011;17996;51.056;3.656;2024-03-08T00:12:42;40.65;;;21.35;;
27543;SDS011;17996;51.056;3.656;2024-03-08T00:15:16;38.70;;;20.35;;
27543;SDS011;17996;51.056;3.656;2024-03-08T00:17:44;33.83;;;20.83;;
27543;SDS011;17996;51.056;3.656;2024-03-08T00:20:12;39.10;;;20.27;;
27543;SDS011;17996;51.056;3.656;2024-03-08T00:22:39;35.58;;;20.85;;
27543;SDS011;17996;51.056;3.656;2024-03-08T00:25:06;35.30;;;20.63;;
27543;SDS011;17996;51.056;3.656;2024-03-08T00:27:36;34.80;;;19.05;;
27543;SDS011;17996;51.056;3.656;2024-03-08T00:30:04;40.67;;;22.33;;
27543;SDS011;17996;51.056;3.656;2024-03-08T00:32:31;41.47;;;21.23;;
27543;SDS011;17996;51.056;3.656;2024-03-08T00:34:58;35.38;;;20.65;;
27543;SDS011;17996;51.056;3.656;2024-03-08T00:37:27;37.97;;;22.55;;
27543;SDS011;17996;51.056;3.656;2024-03-08T00:39:53;38.60;;;21.60;;
27543;SDS011;17996;51.056;3.656;2024-03-08T00:42:21;42.72;;;23.13;;
27543;SDS011;17996;51.056;3.656;2024-03-08T00:44:49;37.33;;;21.90;;
27543;SDS011;17996;51.056;3.656;2024-03-08T00:49:44;46.08;;;24.65;;
27543;SDS011;17996;51.056;3.656;2024-03-08T00:52:11;40.17;;;23.40;;
27543;SDS011;17996;51.056;3.656;2024-03-08T00:54:40;44.65;;;23.70;;
27543;SDS011;17996;51.056;3.656;2024-03-08T00:57:05;44.58;;;24.02;;
27543;SDS011;17996;51.056;3.656;2024-03-08T00:59:32;45.22;;;24.52;;
27543;SDS011;17996;51.056;3.656;2024-03-08T01:02:01;53.25;;;25.48;;
27543;SDS011;17996;51.056;3.656;2024-03-08T01:04:28;45.47;;;25.45;;
27543;SDS011;17996;51.056;3.656;2024-03-08T01:06:57;48.55;;;24.90;;
27543;SDS011;17996;51.056;3.656;2024-03-08T01:11:54;48.90;;;26.58;;
27543;SDS011;17996;51.056;3.656;2024-03-08T01:14:22;52.75;;;27.42;;
27543;SDS011;17996;51.056;3.656;2024-03-08T01:16:51;56.08;;;28.08;;
27543;SDS011;17996;51.056;3.656;2024-03-08T01:19:18;56.42;;;27.63;;
27543;SDS011;17996;51.056;3.656;2024-03-08T01:21:44;58.10;;;31.02;;
27543;SDS011;17996;51.056;3.656;2024-03-08T01:26:38;57.17;;;29.40;;
27543;SDS011;17996;51.056;3.656;2024-03-08T01:29:04;58.88;;;29.27;;
27543;SDS011;17996;51.056;3.656;2024-03-08T01:34:00;52.03;;;28.52;;
27543;SDS011;17996;51.056;3.656;2024-03-08T01:36:28;63.53;;;32.05;;
27543;SDS011;17996;51.056;3.656;2024-03-08T01:38:54;63.75;;;31.40;;
27543;SDS011;17996;51.056;3.656;2024-03-08T01:41:19;61.30;;;31.40;;
27543;SDS011;17996;51.056;3.656;2024-03-08T01:43:47;60.30;;;30.17;;
27543;SDS011;17996;51.056;3.656;2024-03-08T01:46:15;55.35;;;29.80;;
27543;SDS011;17996;51.056;3.656;2024-03-08T01:51:14;57.97;;;30.48;;
27543;SDS011;17996;51.056;3.656;2024-03-08T01:53:41;60.33;;;32.45;;
27543;SDS011;17996;51.056;3.656;2024-03-08T01:56:10;60.95;;;31.05;;
27543;SDS011;17996;51.056;3.656;2024-03-08T01:58:41;62.08;;;32.75;;
27543;SDS011;17996;51.056;3.656;2024-03-08T02:03:42;55.55;;;28.92;;
27543;SDS011;17996;51.056;3.656;2024-03-08T02:06:11;59.63;;;31.10;;
27543;SDS011;17996;51.056;3.656;2024-03-08T02:08:39;61.13;;;30.67;;
27543;SDS011;17996;51.056;3.656;2024-03-08T02:11:07;63.63;;;32.13;;
27543;SDS011;17996;51.056;3.656;2024-03-08T02:13:36;53.40;;;29.77;;
27543;SDS011;17996;51.056;3.656;2024-03-08T02:16:02;59.15;;;31.40;;
27543;SDS011;17996;51.056;3.656;2024-03-08T02:18:30;58.75;;;30.85;;
27543;SDS011;17996;51.056;3.656;2024-03-08T02:23:26;60.95;;;31.10;;
27543;SDS011;17996;51.056;3.656;2024-03-08T02:31:03;58.35;;;31.13;;
27543;SDS011;17996;51.056;3.656;2024-03-08T02:33:33;63.22;;;31.42;;
27543;SDS011;17996;51.056;3.656;2024-03-08T02:35:59;58.33;;;31.20;;
27543;SDS011;17996;51.056;3.656;2024-03-08T02:38:31;67.07;;;30.52;;
27543;SDS011;17996;51.056;3.656;2024-03-08T02:41:01;53.42;;;31.73;;
27543;SDS011;17996;51.056;3.656;2024-03-08T02:43:31;50.88;;;30.23;;
27543;SDS011;17996;51.056;3.656;2024-03-08T02:45:59;65.15;;;31.63;;
27543;SDS011;17996;51.056;3.656;2024-03-08T02:48:28;57.40;;;30.85;;
27543;SDS011;17996;51.056;3.656;2024-03-08T02:50:54;58.70;;;30.42;;
27543;SDS011;17996;51.056;3.656;2024-03-08T02:53:23;55.92;;;28.67;;
27543;SDS011;17996;51.056;3.656;2024-03-08T02:58:19;60.95;;;30.58;;
27543;SDS011;17996;51.056;3.656;2024-03-08T03:00:48;57.70;;;31.25;;
27543;SDS011;17996;51.056;3.656;2024-03-08T03:03:15;57.80;;;30.95;;
27543;SDS011;17996;51.056;3.656;2024-03-08T03:05:41;57.28;;;31.23;;
27543;SDS011;17996;51.056;3.656;2024-03-08T03:08:08;66.53;;;32.05;;
27543;SDS011;17996;51.056;3.656;2024-03-08T03:10:36;60.90;;;30.55;;
27543;SDS011;17996;51.056;3.656;2024-03-08T03:13:02;56.55;;;30.88;;
27543;SDS011;17996;51.056;3.656;2024-03-08T03:18:00;54.42;;;31.27;;
27543;SDS011;17996;51.056;3.656;2024-03-08T03:20:29;50.58;;;29.48;;
27543;SDS011;17996;51.056;3.656;2024-03-08T03:23:08;55.90;;;32.10;;
27543;SDS011;17996;51.056;3.656;2024-03-08T03:25:49;58.30;;;30.63;;
27543;SDS011;17996;51.056;3.656;2024-03-08T03:28:15;48.55;;;29.17;;
27543;SDS011;17996;51.056;3.656;2024-03-08T03:30:48;55.80;;;31.73;;
27543;SDS011;17996;51.056;3.656;2024-03-08T03:33:16;54.53;;;30.08;;
27543;SDS011;17996;51.056;3.656;2024-03-08T03:35:44;53.15;;;31.02;;
27543;SDS011;17996;51.056;3.656;2024-03-08T03:40:39;49.75;;;30.13;;
27543;SDS011;17996;51.056;3.656;2024-03-08T03:43:09;54.78;;;31.17;;
27543;SDS011;17996;51.056;3.656;2024-03-08T03:45:36;52.72;;;30.30;;
27543;SDS011;17996;51.056;3.656;2024-03-08T03:48:06;51.90;;;31.65;;
27543;SDS011;17996;51.056;3.656;2024-03-08T03:53:04;56.60;;;31.88;;
27543;SDS011;17996;51.056;3.656;2024-03-08T03:55:35;50.22;;;30.95;;
27543;SDS011;17996;51.056;3.656;2024-03-08T03:58:03;52.55;;;32.13;;
27543;SDS011;17996;51.056;3.656;2024-03-08T04:00:29;55.75;;;31.08;;
27543;SDS011;17996;51.056;3.656;2024-03-08T04:02:56;51.47;;;30.80;;
27543;SDS011;17996;51.056;3.656;2024-03-08T04:05:25;51.58;;;31.67;;
27543;SDS011;17996;51.056;3.656;2024-03-08T04:07:51;50.53;;;31.13;;
27543;SDS011;17996;51.056;3.656;2024-03-08T04:12:47;49.55;;;31.90;;
27543;SDS011;17996;51.056;3.656;2024-03-08T04:17:43;52.90;;;30.42;;
27543;SDS011;17996;51.056;3.656;2024-03-08T04:20:10;50.13;;;32.55;;
27543;SDS011;17996;51.056;3.656;2024-03-08T04:22:37;57.83;;;31.67;;
27543;SDS011;17996;51.056;3.656;2024-03-08T04:25:06;51.88;;;31.80;;
27543;SDS011;17996;51.056;3.656;2024-03-08T04:27:33;56.28;;;31.20;;
27543;SDS011;17996;51.056;3.656;2024-03-08T04:29:59;58.75;;;30.92;;
27543;SDS011;17996;51.056;3.656;2024-03-08T04:32:26;64.20;;;34.58;;
27543;SDS011;17996;51.056;3.656;2024-03-08T04:34:56;56.22;;;31.42;;
27543;SDS011;17996;51.056;3.656;2024-03-08T04:39:54;52.88;;;29.92;;
27543;SDS011;17996;51.056;3.656;2024-03-08T04:44:51;50.30;;;31.90;;
27543;SDS011;17996;51.056;3.656;2024-03-08T04:47:20;40.15;;;24.42;;
27543;SDS011;17996;51.056;3.656;2024-03-08T04:49:49;51.33;;;30.67;;
27543;SDS011;17996;51.056;3.656;2024-03-08T04:54:44;49.08;;;29.42;;
27543;SDS011;17996;51.056;3.656;2024-03-08T05:02:06;52.45;;;29.02;;
27543;SDS011;17996;51.056;3.656;2024-03-08T05:04:32;47.80;;;29.35;;
27543;SDS011;17996;51.056;3.656;2024-03-08T05:06:58;45.47;;;29.85;;
27543;SDS011;17996;51.056;3.656;2024-03-08T05:09:28;46.08;;;29.00;;
27543;SDS011;17996;51.056;3.656;2024-03-08T05:11:56;48.75;;;29.77;;
27543;SDS011;17996;51.056;3.656;2024-03-08T05:14:30;51.72;;;33.47;;
27543;SDS011;17996;51.056;3.656;2024-03-08T05:19:29;48.05;;;29.88;;
27543;SDS011;17996;51.056;3.656;2024-03-08T05:21:57;52.72;;;31.83;;
27543;SDS011;17996;51.056;3.656;2024-03-08T05:24:29;49.70;;;31.60;;
27543;SDS011;17996;51.056;3.656;2024-03-08T05:26:57;46.38;;;30.48;;
27543;SDS011;17996;51.056;3.656;2024-03-08T05:29:25;44.10;;;29.23;;
27543;SDS011;17996;51.056;3.656;2024-03-08T05:31:51;51.60;;;31.58;;
27543;SDS011;17996;51.056;3.656;2024-03-08T05:34:21;51.50;;;30.65;;
27543;SDS011;17996;51.056;3.656;2024-03-08T05:36:49;50.90;;;31.10;;
27543;SDS011;17996;51.056;3.656;2024-03-08T05:39:18;49.80;;;31.42;;
27543;SDS011;17996;51.056;3.656;2024-03-08T05:44:16;48.72;;;29.42;;
27543;SDS011;17996;51.056;3.656;2024-03-08T05:46:43;49.92;;;29.98;;
27543;SDS011;17996;51.056;3.656;2024-03-08T05:54:14;50.05;;;30.48;;
27543;SDS011;17996;51.056;3.656;2024-03-08T05:56:41;56.90;;;31.38;;
27543;SDS011;17996;51.056;3.656;2024-03-08T06:01:38;47.25;;;29.00;;
27543;SDS011;17996;51.056;3.656;2024-03-08T06:04:07;54.45;;;31.83;;
27543;SDS011;17996;51.056;3.656;2024-03-08T06:09:03;53.85;;;31.70;;
27543;SDS011;17996;51.056;3.656;2024-03-08T06:11:36;47.65;;;31.00;;
27543;SDS011;17996;51.056;3.656;2024-03-08T06:14:08;49.00;;;30.98;;
27543;SDS011;17996;51.056;3.656;2024-03-08T06:16:37;49.50;;;28.80;;
27543;SDS011;17996;51.056;3.656;2024-03-08T06:19:03;51.53;;;30.85;;
27543;SDS011;17996;51.056;3.656;2024-03-08T06:21:29;53.22;;;32.50;;
27543;SDS011;17996;51.056;3.656;2024-03-08T06:23:56;45.88;;;30.08;;
27543;SDS011;17996;51.056;3.656;2024-03-08T06:26:30;54.47;;;32.00;;
27543;SDS011;17996;51.056;3.656;2024-03-08T06:31:25;54.20;;;30.90;;
27543;SDS011;17996;51.056;3.656;2024-03-08T06:36:20;46.47;;;30.13;;
27543;SDS011;17996;51.056;3.656;2024-03-08T06:38:52;54.05;;;30.35;;
27543;SDS011;17996;51.056;3.656;2024-03-08T06:41:20;54.40;;;31.50;;
27543;SDS011;17996;51.056;3.656;2024-03-08T06:43:47;47.53;;;29.25;;
27543;SDS011;17996;51.056;3.656;2024-03-08T06:46:16;48.60;;;29.17;;
27543;SDS011;17996;51.056;3.656;2024-03-08T06:48:43;54.35;;;30.67;;
27543;SDS011;17996;51.056;3.656;2024-03-08T06:51:10;51.30;;;31.10;;
27543;SDS011;17996;51.056;3.656;2024-03-08T06:53:38;50.50;;;29.88;;
27543;SDS011;17996;51.056;3.656;2024-03-08T06:56:05;50.67;;;30.05;;
27543;SDS011;17996;51.056;3.656;2024-03-08T06:58:34;50.28;;;31.80;;
27543;SDS011;17996;51.056;3.656;2024-03-08T07:01:00;51.50;;;31.77;;
27543;SDS011;17996;51.056;3.656;2024-03-08T07:03:30;56.03;;;31.67;;
27543;SDS011;17996;51.056;3.656;2024-03-08T07:05:57;53.25;;;31.95;;
27543;SDS011;17996;51.056;3.656;2024-03-08T07:08:26;50.20;;;30.98;;
27543;SDS011;17996;51.056;3.656;2024-03-08T07:10:52;54.28;;;30.98;;
27543;SDS011;17996;51.056;3.656;2024-03-08T07:13:18;48.70;;;31.52;;
27543;SDS011;17996;51.056;3.656;2024-03-08T07:15:44;54.65;;;30.60;;
27543;SDS011;17996;51.056;3.656;2024-03-08T07:18:13;53.22;;;30.73;;
27543;SDS011;17996;51.056;3.656;2024-03-08T07:20:42;51.30;;;31.63;;
27543;SDS011;17996;51.056;3.656;2024-03-08T07:23:11;53.60;;;30.98;;
27543;SDS011;17996;51.056;3.656;2024-03-08T07:25:58;44.03;;;28.98;;
27543;SDS011;17996;51.056;3.656;2024-03-08T07:28:27;47.70;;;29.30;;
27543;SDS011;17996;51.056;3.656;2024-03-08T07:30:57;49.75;;;30.38;;
27543;SDS011;17996;51.056;3.656;2024-03-08T07:33:40;53.17;;;31.08;;
27543;SDS011;17996;51.056;3.656;2024-03-08T07:36:06;50.20;;;31.13;;
27543;SDS011;17996;51.056;3.656;2024-03-08T07:38:31;52.58;;;29.42;;
27543;SDS011;17996;51.056;3.656;2024-03-08T07:40:57;58.17;;;31.67;;
27543;SDS011;17996;51.056;3.656;2024-03-08T07:43:23;51.00;;;30.30;;
27543;SDS011;17996;51.056;3.656;2024-03-08T07:45:50;53.92;;;30.88;;
27543;SDS011;17996;51.056;3.656;2024-03-08T07:48:24;40.40;;;24.08;;
27543;SDS011;17996;51.056;3.656;2024-03-08T07:50:51;54.30;;;32.08;;
27543;SDS011;17996;51.056;3.656;2024-03-08T07:53:18;49.88;;;31.05;;
27543;SDS011;17996;51.056;3.656;2024-03-08T07:55:46;49.72;;;29.20;;
27543;SDS011;17996;51.056;3.656;2024-03-08T07:58:12;52.38;;;31.25;;
27543;SDS011;17996;51.056;3.656;2024-03-08T08:00:41;48.40;;;30.05;;
27543;SDS011;17996;51.056;3.656;2024-03-08T08:03:09;47.45;;;29.60;;
27543;SDS011;17996;51.056;3.656;2024-03-08T08:05:37;48.13;;;30.27;;
27543;SDS011;17996;51.056;3.656;2024-03-08T08:08:13;45.63;;;29.73;;
27543;SDS011;17996;51.056;3.656;2024-03-08T08:10:38;59.22;;;31.40;;
27543;SDS011;17996;51.056;3.656;2024-03-08T08:13:05;58.40;;;29.85;;
27543;SDS011;17996;51.056;3.656;2024-03-08T08:15:32;52.13;;;29.85;;
27543;SDS011;17996;51.056;3.656;2024-03-08T08:18:02;51.05;;;28.88;;
27543;SDS011;17996;51.056;3.656;2024-03-08T08:20:31;50.60;;;30.52;;
27543;SDS011;17996;51.056;3.656;2024-03-08T08:22:57;51.53;;;29.60;;
27543;SDS011;17996;51.056;3.656;2024-03-08T08:25:25;48.10;;;30.17;;
27543;SDS011;17996;51.056;3.656;2024-03-08T08:27:52;48.63;;;30.20;;
27543;SDS011;17996;51.056;3.656;2024-03-08T08:30:19;48.53;;;30.10;;
27543;SDS011;17996;51.056;3.656;2024-03-08T08:32:46;48.58;;;30.00;;
27543;SDS011;17996;51.056;3.656;2024-03-08T08:35:13;48.53;;;28.55;;
27543;SDS011;17996;51.056;3.656;2024-03-08T08:37:40;53.05;;;31.40;;
27543;SDS011;17996;51.056;3.656;2024-03-08T08:40:07;50.75;;;30.80;;
27543;SDS011;17996;51.056;3.656;2024-03-08T08:42:39;47.80;;;29.70;;
27543;SDS011;17996;51.056;3.656;2024-03-08T08:45:06;49.95;;;27.42;;
27543;SDS011;17996;51.056;3.656;2024-03-08T08:47:36;52.80;;;29.25;;
27543;SDS011;17996;51.056;3.656;2024-03-08T08:50:03;49.70;;;30.52;;
27543;SDS011;17996;51.056;3.656;2024-03-08T08:52:32;51.53;;;29.25;;
27543;SDS011;17996;51.056;3.656;2024-03-08T08:55:00;49.17;;;28.60;;
27543;SDS011;17996;51.056;3.656;2024-03-08T08:57:28;50.72;;;29.63;;
27543;SDS011;17996;51.056;3.656;2024-03-08T08:59:55;51.90;;;29.40;;
27543;SDS011;17996;51.056;3.656;2024-03-08T09:02:23;51.65;;;29.67;;
27543;SDS011;17996;51.056;3.656;2024-03-08T09:07:22;47.90;;;27.23;;
27543;SDS011;17996;51.056;3.656;2024-03-08T09:09:51;50.38;;;30.00;;
27543;SDS011;17996;51.056;3.656;2024-03-08T09:12:17;50.60;;;27.88;;
27543;SDS011;17996;51.056;3.656;2024-03-08T09:14:43;48.50;;;28.10;;
27543;SDS011;17996;51.056;3.656;2024-03-08T09:17:09;43.40;;;26.83;;
27543;SDS011;17996;51.056;3.656;2024-03-08T09:19:35;49.90;;;26.75;;
27543;SDS011;17996;51.056;3.656;2024-03-08T09:22:01;45.80;;;28.17;;
27543;SDS011;17996;51.056;3.656;2024-03-08T09:24:31;43.35;;;27.25;;
27543;SDS011;17996;51.056;3.656;2024-03-08T09:29:26;44.65;;;28.40;;
27543;SDS011;17996;51.056;3.656;2024-03-08T09:31:53;44.47;;;27.42;;
27543;SDS011;17996;51.056;3.656;2024-03-08T09:34:18;50.45;;;27.10;;
27543;SDS011;17996;51.056;3.656;2024-03-08T09:36:57;49.63;;;29.40;;
27543;SDS011;17996;51.056;3.656;2024-03-08T09:39:24;44.90;;;27.50;;
27543;SDS011;17996;51.056;3.656;2024-03-08T09:41:49;51.67;;;27.63;;
27543;SDS011;17996;51.056;3.656;2024-03-08T09:44:18;44.75;;;28.80;;
27543;SDS011;17996;51.056;3.656;2024-03-08T09:49:15;49.87;;;27.87;;
27543;SDS011;17996;51.056;3.656;2024-03-08T09:51:43;44.55;;;25.40;;
27543;SDS011;17996;51.056;3.656;2024-03-08T09:56:39;43.67;;;24.75;;
27543;SDS011;17996;51.056;3.656;2024-03-08T09:59:10;45.45;;;26.35;;
27543;SDS011;17996;51.056;3.656;2024-03-08T10:02:05;50.53;;;27.27;;
27543;SDS011;17996;51.056;3.656;2024-03-08T10:04:31;46.95;;;26.02;;
27543;SDS011;17996;51.056;3.656;2024-03-08T10:06:59;45.17;;;27.02;;
27543;SDS011;17996;51.056;3.656;2024-03-08T10:09:26;52.83;;;26.38;;
27543;SDS011;17996;51.056;3.656;2024-03-08T10:11:53;45.90;;;26.27;;
27543;SDS011;17996;51.056;3.656;2024-03-08T10:14:24;46.70;;;27.10;;
27543;SDS011;17996;51.056;3.656;2024-03-08T10:16:54;45.83;;;26.45;;
27543;SDS011;17996;51.056;3.656;2024-03-08T10:19:27;47.63;;;26.08;;
27543;SDS011;17996;51.056;3.656;2024-03-08T10:21:55;43.13;;;26.23;;
27543;SDS011;17996;51.056;3.656;2024-03-08T10:24:23;43.15;;;25.67;;
27543;SDS011;17996;51.056;3.656;2024-03-08T10:26:59;41.50;;;24.80;;
27543;SDS011;17996;51.056;3.656;2024-03-08T10:29:30;43.33;;;25.63;;
27543;SDS011;17996;51.056;3.656;2024-03-08T10:31:57;42.30;;;26.52;;
27543;SDS011;17996;51.056;3.656;2024-03-08T10:34:23;45.92;;;25.08;;
27543;SDS011;17996;51.056;3.656;2024-03-08T10:36:50;38.60;;;23.63;;
27543;SDS011;17996;51.056;3.656;2024-03-08T10:39:20;38.92;;;24.35;;
27543;SDS011;17996;51.056;3.656;2024-03-08T10:41:57;45.55;;;25.23;;
27543;SDS011;17996;51.056;3.656;2024-03-08T10:47:04;46.03;;;25.38;;
27543;SDS011;17996;51.056;3.656;2024-03-08T10:49:37;37.97;;;23.60;;
27543;SDS011;17996;51.056;3.656;2024-03-08T10:52:09;42.78;;;26.48;;
27543;SDS011;17996;51.056;3.656;2024-03-08T10:54:41;41.63;;;24.02;;
27543;SDS011;17996;51.056;3.656;2024-03-08T10:57:09;50.55;;;26.02;;
27543;SDS011;17996;51.056;3.656;2024-03-08T11:02:11;39.80;;;23.73;;
27543;SDS011;17996;51.056;3.656;2024-03-08T11:07:12;37.25;;;22.98;;
27543;SDS011;17996;51.056;3.656;2024-03-08T11:09:44;43.42;;;23.35;;
27543;SDS011;17996;51.056;3.656;2024-03-08T11:12:20;38.08;;;22.58;;
27543;SDS011;17996;51.056;3.656;2024-03-08T11:15:00;36.13;;;23.30;;
27543;SDS011;17996;51.056;3.656;2024-03-08T11:17:45;35.40;;;23.00;;
27543;SDS011;17996;51.056;3.656;2024-03-08T11:20:15;37.08;;;22.38;;
27543;SDS011;17996;51.056;3.656;2024-03-08T11:22:55;37.00;;;23.17;;
27543;SDS011;17996;51.056;3.656;2024-03-08T11:28:10;33.47;;;21.33;;
27543;SDS011;17996;51.056;3.656;2024-03-08T11:30:45;38.22;;;22.77;;
27543;SDS011;17996;51.056;3.656;2024-03-08T11:33:34;33.33;;;20.42;;
27543;SDS011;17996;51.056;3.656;2024-03-08T11:38:40;39.00;;;23.90;;
27543;SDS011;17996;51.056;3.656;2024-03-08T11:41:08;36.83;;;22.70;;
27543;SDS011;17996;51.056;3.656;2024-03-08T11:43:34;41.38;;;24.30;;
27543;SDS011;17996;51.056;3.656;2024-03-08T11:46:10;36.78;;;22.98;;
27543;SDS011;17996;51.056;3.656;2024-03-08T11:48:40;35.72;;;22.13;;
27543;SDS011;17996;51.056;3.656;2024-03-08T11:51:13;36.92;;;21.92;;
27543;SDS011;17996;51.056;3.656;2024-03-08T11:53:43;38.67;;;22.38;;
27543;SDS011;17996;51.056;3.656;2024-03-08T11:56:11;39.08;;;21.23;;
27543;SDS011;17996;51.056;3.656;2024-03-08T11:58:40;34.92;;;21.90;;
27543;SDS011;17996;51.056;3.656;2024-03-08T12:01:08;34.72;;;22.73;;
27543;SDS011;17996;51.056;3.656;2024-03-08T12:03:41;34.63;;;22.75;;
27543;SDS011;17996;51.056;3.656;2024-03-08T12:06:10;36.72;;;21.05;;
27543;SDS011;17996;51.056;3.656;2024-03-08T12:08:38;35.40;;;21.50;;
27543;SDS011;17996;51.056;3.656;2024-03-08T12:11:04;33.05;;;20.98;;
27543;SDS011;17996;51.056;3.656;2024-03-08T12:13:32;34.13;;;21.77;;
27543;SDS011;17996;51.056;3.656;2024-03-08T12:18:37;37.30;;;20.88;;
27543;SDS011;17996;51.056;3.656;2024-03-08T12:21:07;38.45;;;23.08;;
27543;SDS011;17996;51.056;3.656;2024-03-08T12:23:35;35.83;;;21.67;;
27543;SDS011;17996;51.056;3.656;2024-03-08T12:26:12;40.50;;;21.75;;
27543;SDS011;17996;51.056;3.656;2024-03-08T12:28:43;34.25;;;22.63;;
27543;SDS011;17996;51.056;3.656;2024-03-08T12:31:13;39.00;;;22.52;;
27543;SDS011;17996;51.056;3.656;2024-03-08T12:33:50;33.70;;;20.83;;
27543;SDS011;17996;51.056;3.656;2024-03-08T12:36:17;37.55;;;22.63;;
27543;SDS011;17996;51.056;3.656;2024-03-08T12:38:45;34.53;;;20.70;;
27543;SDS011;17996;51.056;3.656;2024-03-08T12:41:14;34.33;;;21.20;;
27543;SDS011;17996;51.056;3.656;2024-03-08T12:43:45;33.15;;;20.58;;
27543;SDS011;17996;51.056;3.656;2024-03-08T12:46:16;33.97;;;20.13;;
27543;SDS011;17996;51.056;3.656;2024-03-08T12:48:43;34.03;;;20.60;;
27543;SDS011;17996;51.056;3.656;2024-03-08T12:51:18;35.13;;;21.00;;
27543;SDS011;17996;51.056;3.656;2024-03-08T12:53:45;35.92;;;19.73;;
27543;SDS011;17996;51.056;3.656;2024-03-08T12:56:14;31.08;;;20.98;;
27543;SDS011;17996;51.056;3.656;2024-03-08T12:59:03;31.40;;;20.60;;
27543;SDS011;17996;51.056;3.656;2024-03-08T13:01:37;30.23;;;19.45;;
27543;SDS011;17996;51.056;3.656;2024-03-08T13:04:09;34.05;;;19.83;;
27543;SDS011;17996;51.056;3.656;2024-03-08T13:06:36;29.30;;;19.77;;
27543;SDS011;17996;51.056;3.656;2024-03-08T13:09:02;39.88;;;21.52;;
27543;SDS011;17996;51.056;3.656;2024-03-08T13:11:32;30.95;;;18.42;;
27543;SDS011;17996;51.056;3.656;2024-03-08T13:14:02;32.20;;;19.83;;
27543;SDS011;17996;51.056;3.656;2024-03-08T13:16:31;32.20;;;19.60;;
27543;SDS011;17996;51.056;3.656;2024-03-08T13:18:59;32.50;;;20.58;;
27543;SDS011;17996;51.056;3.656;2024-03-08T13:21:24;30.85;;;19.70;;
27543;SDS011;17996;51.056;3.656;2024-03-08T13:23:51;31.38;;;20.05;;
27543;SDS011;17996;51.056;3.656;2024-03-08T13:26:18;31.85;;;20.45;;
27543;SDS011;17996;51.056;3.656;2024-03-08T13:28:50;28.25;;;19.17;;
27543;SDS011;17996;51.056;3.656;2024-03-08T13:31:19;36.17;;;19.73;;
27543;SDS011;17996;51.056;3.656;2024-03-08T13:33:45;27.15;;;18.45;;
27543;SDS011;17996;51.056;3.656;2024-03-08T13:36:15;35.13;;;19.97;;
27543;SDS011;17996;51.056;3.656;2024-03-08T13:38:45;32.45;;;18.95;;
27543;SDS011;17996;51.056;3.656;2024-03-08T13:41:13;29.67;;;18.02;;
27543;SDS011;17996;51.056;3.656;2024-03-08T13:43:42;29.60;;;18.27;;
27543;SDS011;17996;51.056;3.656;2024-03-08T13:46:08;32.17;;;19.90;;
27543;SDS011;17996;51.056;3.656;2024-03-08T13:48:35;35.33;;;20.38;;
27543;SDS011;17996;51.056;3.656;2024-03-08T13:51:03;35.65;;;20.00;;
27543;SDS011;17996;51.056;3.656;2024-03-08T13:53:30;34.83;;;19.63;;
27543;SDS011;17996;51.056;3.656;2024-03-08T13:55:57;37.05;;;19.98;;
27543;SDS011;17996;51.056;3.656;2024-03-08T13:58:23;32.92;;;18.67;;
27543;SDS011;17996;51.056;3.656;2024-03-08T14:00:49;38.97;;;20.63;;
27543;SDS011;17996;51.056;3.656;2024-03-08T14:03:16;34.47;;;19.80;;
27543;SDS011;17996;51.056;3.656;2024-03-08T14:05:43;32.45;;;19.55;;
27543;SDS011;17996;51.056;3.656;2024-03-08T14:08:10;27.63;;;18.77;;
27543;SDS011;17996;51.056;3.656;2024-03-08T14:10:37;33.03;;;17.52;;
27543;SDS011;17996;51.056;3.656;2024-03-08T14:13:04;29.25;;;19.02;;
27543;SDS011;17996;51.056;3.656;2024-03-08T14:15:31;28.98;;;18.38;;
27543;SDS011;17996;51.056;3.656;2024-03-08T14:17:57;33.13;;;18.42;;
27543;SDS011;17996;51.056;3.656;2024-03-08T14:20:23;27.60;;;17.88;;
27543;SDS011;17996;51.056;3.656;2024-03-08T14:22:52;30.08;;;18.08;;
27543;SDS011;17996;51.056;3.656;2024-03-08T14:25:18;32.75;;;17.17;;
27543;SDS011;17996;51.056;3.656;2024-03-08T14:27:45;28.48;;;18.40;;
27543;SDS011;17996;51.056;3.656;2024-03-08T14:30:12;31.58;;;18.85;;
27543;SDS011;17996;51.056;3.656;2024-03-08T14:32:40;35.72;;;18.02;;
27543;SDS011;17996;51.056;3.656;2024-03-08T14:35:06;31.98;;;18.48;;
27543;SDS011;17996;51.056;3.656;2024-03-08T14:37:34;32.67;;;18.25;;
27543;SDS011;17996;51.056;3.656;2024-03-08T14:40:01;32.97;;;17.45;;
27543;SDS011;17996;51.056;3.656;2024-03-08T14:42:31;32.38;;;17.67;;
27543;SDS011;17996;51.056;3.656;2024-03-08T14:44:57;33.72;;;18.20;;
27543;SDS011;17996;51.056;3.656;2024-03-08T14:47:26;36.55;;;18.58;;
27543;SDS011;17996;51.056;3.656;2024-03-08T14:49:52;26.88;;;17.63;;
27543;SDS011;17996;51.056;3.656;2024-03-08T14:52:20;31.88;;;17.70;;
27543;SDS011;17996;51.056;3.656;2024-03-08T14:54:52;27.42;;;17.42;;
27543;SDS011;17996;51.056;3.656;2024-03-08T14:57:21;26.15;;;17.63;;
27543;SDS011;17996;51.056;3.656;2024-03-08T14:59:47;28.60;;;18.02;;
27543;SDS011;17996;51.056;3.656;2024-03-08T15:02:13;27.33;;;17.60;;
27543;SDS011;17996;51.056;3.656;2024-03-08T15:04:38;25.30;;;17.52;;
27543;SDS011;17996;51.056;3.656;2024-03-08T15:07:06;30.70;;;16.38;;
27543;SDS011;17996;51.056;3.656;2024-03-08T15:09:35;30.35;;;17.83;;
27543;SDS011;17996;51.056;3.656;2024-03-08T15:12:07;27.17;;;17.85;;
27543;SDS011;17996;51.056;3.656;2024-03-08T15:14:38;25.85;;;17.00;;
27543;SDS011;17996;51.056;3.656;2024-03-08T15:17:05;28.77;;;18.63;;
27543;SDS011;17996;51.056;3.656;2024-03-08T15:19:35;25.10;;;16.52;;
27543;SDS011;17996;51.056;3.656;2024-03-08T15:22:03;24.15;;;17.20;;
27543;SDS011;17996;51.056;3.656;2024-03-08T15:24:29;27.23;;;17.65;;
27543;SDS011;17996;51.056;3.656;2024-03-08T15:26:55;29.40;;;16.98;;
27543;SDS011;17996;51.056;3.656;2024-03-08T15:29:22;25.48;;;17.08;;
27543;SDS011;17996;51.056;3.656;2024-03-08T15:31:52;27.58;;;17.10;;
27543;SDS011;17996;51.056;3.656;2024-03-08T15:34:19;25.40;;;16.60;;
27543;SDS011;17996;51.056;3.656;2024-03-08T15:36:49;29.90;;;16.00;;
27543;SDS011;17996;51.056;3.656;2024-03-08T15:39:19;26.15;;;17.33;;
27543;SDS011;17996;51.056;3.656;2024-03-08T15:41:49;25.40;;;16.42;;
27543;SDS011;17996;51.056;3.656;2024-03-08T15:44:15;34.35;;;17.23;;
27543;SDS011;17996;51.056;3.656;2024-03-08T15:46:43;24.05;;;17.13;;
27543;SDS011;17996;51.056;3.656;2024-03-08T15:49:09;25.67;;;17.67;;
27543;SDS011;17996;51.056;3.656;2024-03-08T15:51:35;29.33;;;16.65;;
27543;SDS011;17996;51.056;3.656;2024-03-08T15:54:03;29.05;;;17.63;;
27543;SDS011;17996;51.056;3.656;2024-03-08T15:56:30;30.20;;;17.83;;
27543;SDS011;17996;51.056;3.656;2024-03-08T15:59:02;36.33;;;18.75;;
27543;SDS011;17996;51.056;3.656;2024-03-08T16:01:31;31.83;;;19.23;;
27543;SDS011;17996;51.056;3.656;2024-03-08T16:03:58;31.38;;;17.95;;
27543;SDS011;17996;51.056;3.656;2024-03-08T16:06:24;29.17;;;18.23;;